createdAt,value
2018-10-07T00:01:41.242Z,6.20
2018-10-07T00:05:45.357Z,7.97
2018-10-07T00:09:49.786Z,8.27
2018-10-07T00:13:53.755Z,10.77
2018-10-07T00:17:58.774Z,10.43
2018-10-07T00:22:02.919Z,9.57
2018-10-07T00:26:09.090Z,8.20
2018-10-07T00:30:15.077Z,9.60
2018-10-07T00:34:19.379Z,11.13
2018-10-07T00:38:23.395Z,10.47
2018-10-07T00:42:27.602Z,11.07
2018-10-07T00:46:31.929Z,10.80
2018-10-07T00:50:36.124Z,11.40
2018-10-07T00:54:40.685Z,8.63
2018-10-07T00:58:45.014Z,10.50
2018-10-07T01:02:49.557Z,11.73
2018-10-07T01:06:54.260Z,10.67
2018-10-07T01:10:58.385Z,11.37
2018-10-07T01:15:02.636Z,10.97
2018-10-07T01:19:07.073Z,12.87
2018-10-07T01:23:12.480Z,12.17
2018-10-07T02:02:11.143Z,13.10
2018-10-07T02:06:16.215Z,11.00
2018-10-07T02:10:20.603Z,14.20
2018-10-07T02:14:47.192Z,16.17
2018-10-07T02:18:51.410Z,13.63
2018-10-07T02:22:55.655Z,15.33
2018-10-07T02:27:00.674Z,13.43
2018-10-07T02:31:28.215Z,13.27
2018-10-07T02:40:50.665Z,12.50
2018-10-07T02:54:11.409Z,11.27
2018-10-07T02:58:15.824Z,12.27
2018-10-07T03:02:19.942Z,12.80
2018-10-07T03:06:24.143Z,11.13
2018-10-07T03:10:28.275Z,12.00
2018-10-07T03:28:39.545Z,11.23
2018-10-07T03:32:48.683Z,13.77
2018-10-07T04:09:30.317Z,13.57
2018-10-07T04:18:24.615Z,16.07
2018-10-07T04:22:28.860Z,13.47
2018-10-07T04:49:47.104Z,13.77
2018-10-07T04:53:51.762Z,14.20
2018-10-07T04:57:55.982Z,13.97
2018-10-07T05:06:55.550Z,12.00
2018-10-07T05:19:49.999Z,13.97
2018-10-07T05:23:57.397Z,12.17
2018-10-07T21:32:53.744Z,5.60
2018-10-07T21:36:58.171Z,6.57
2018-10-07T21:41:02.310Z,5.33
2018-10-07T21:45:06.821Z,5.90
2018-10-07T21:49:11.019Z,4.87
2018-10-07T21:53:15.348Z,5.35
2018-10-07T22:16:11.623Z,5.57
2018-10-07T22:24:59.303Z,6.50
2018-10-07T22:33:41.283Z,6.73
2018-10-07T22:42:14.709Z,9.30
2018-10-07T22:46:18.926Z,8.07
2018-10-07T23:18:08.908Z,8.63
2018-10-07T23:22:13.264Z,10.50
2018-10-07T23:58:42.031Z,13.30
